Time;durP1;ratioP1;P1;durP2;ratioP2;P2;SDS_P1;SDS_P2;PMS_P1;PMS_P2;Temp;Humidity;BMP_temperature;BMP_pressure;BME280_temperature;BME280_humidity;BME280_pressure;Samples;Min_cycle;Max_cycle;Signal;HPM_P1;HPM_P2
2024/01/17 00:00:19;;;;;;;9.65;6.30;;;;;;;-0.38;45.00;99918.78;5011525;28;20045;-70
2024/01/17 00:02:47;;;;;;;10.50;6.47;;;;;;;-0.40;45.03;99916.22;5029673;28;20052;-70
2024/01/17 00:05:16;;;;;;;11.50;6.28;;;;;;;-0.38;45.03;99913.41;5029572;28;20100;-72
2024/01/17 00:07:44;;;;;;;11.13;6.93;;;;;;;-0.41;45.03;99915.34;5029441;28;20052;-71
2024/01/17 00:10:13;;;;;;;10.05;5.88;;;;;;;-0.42;45.16;99902.84;5029530;28;20444;-72
2024/01/17 00:12:41;;;;;;;9.32;5.70;;;;;;;-0.42;45.13;99904.66;5028880;28;20103;-71
2024/01/17 00:15:09;;;;;;;10.35;5.88;;;;;;;-0.43;45.17;99892.19;5114349;23;20048;-74
2024/01/17 00:17:37;;;;;;;9.55;6.07;;;;;;;-0.45;45.04;99886.03;4987844;28;20125;-74
2024/01/17 00:20:07;;;;;;;12.05;6.13;;;;;;;-0.46;44.61;99890.53;4989182;28;20058;-74
2024/01/17 00:22:36;;;;;;;11.57;6.22;;;;;;;-0.47;44.96;99886.09;4993880;28;20049;-75
2024/01/17 00:25:05;;;;;;;11.45;5.90;;;;;;;-0.49;44.81;99882.66;5000674;28;20129;-75
2024/01/17 00:27:33;;;;;;;9.75;6.05;;;;;;;-0.52;44.96;99877.44;5009184;28;20073;-74
2024/01/17 00:30:02;;;;;;;9.50;6.25;;;;;;;-0.53;44.52;99867.66;5006159;28;20089;-75
2024/01/17 00:32:31;;;;;;;9.55;5.95;;;;;;;-0.54;44.64;99865.03;5001737;28;20043;-74
2024/01/17 00:34:59;;;;;;;9.90;5.90;;;;;;;-0.56;44.59;99853.53;4999458;28;20527;-75
2024/01/17 00:37:27;;;;;;;10.40;6.07;;;;;;;-0.59;44.66;99854.56;5009467;28;20038;-74
2024/01/17 00:39:57;;;;;;;10.50;6.25;;;;;;;-0.60;44.58;99847.47;4998739;28;20045;-75
2024/01/17 00:42:26;;;;;;;9.23;6.05;;;;;;;-0.63;44.68;99844.06;4994188;28;20054;-74
2024/01/17 00:44:54;;;;;;;10.85;6.00;;;;;;;-0.67;44.76;99837.16;4990809;28;20042;-74
2024/01/17 00:47:22;;;;;;;9.18;5.80;;;;;;;-0.70;44.38;99824.75;5004282;28;20133;-75
2024/01/17 00:49:50;;;;;;;11.80;5.93;;;;;;;-0.73;44.58;99821.41;4989396;28;20043;-74
2024/01/17 00:52:18;;;;;;;8.88;5.53;;;;;;;-0.75;44.48;99816.09;5007835;28;20042;-74
2024/01/17 00:54:46;;;;;;;8.05;5.25;;;;;;;-0.78;44.67;99810.91;5008979;28;20057;-74
2024/01/17 00:57:15;;;;;;;8.93;5.20;;;;;;;-0.79;44.58;99812.72;5004700;28;20113;-75
2024/01/17 00:59:42;;;;;;;11.15;5.95;;;;;;;-0.83;44.62;99805.81;4998973;28;20389;-74
2024/01/17 01:02:10;;;;;;;8.95;5.70;;;;;;;-0.83;44.61;99804.94;4985210;28;20141;-74
2024/01/17 01:04:38;;;;;;;11.25;5.10;;;;;;;-0.84;44.54;99798.69;4997582;28;20050;-74
2024/01/17 01:07:06;;;;;;;7.68;5.40;;;;;;;-0.87;44.36;99790.81;4988461;28;20053;-75
2024/01/17 01:09:34;;;;;;;8.45;5.30;;;;;;;-0.88;44.45;99786.38;5002244;28;20050;-74
2024/01/17 01:12:02;;;;;;;9.50;6.00;;;;;;;-0.89;44.74;99775.75;4986996;28;20539;-74
2024/01/17 01:14:31;;;;;;;8.02;5.07;;;;;;;-0.89;44.46;99778.44;4999218;28;20444;-74
2024/01/17 01:16:59;;;;;;;10.23;5.43;;;;;;;-0.91;44.85;99773.16;4999670;28;20589;-73
2024/01/17 01:19:27;;;;;;;9.35;5.40;;;;;;;-0.91;44.64;99764.22;4982481;28;20161;-75
2024/01/17 01:21:55;;;;;;;9.18;5.45;;;;;;;-0.92;44.61;99765.16;4988381;28;20052;-74
2024/01/17 01:24:23;;;;;;;10.88;5.55;;;;;;;-0.93;44.65;99768.81;5000693;28;20073;-74
2024/01/17 01:26:51;;;;;;;10.35;5.65;;;;;;;-0.94;44.44;99767.94;5000977;28;20568;-75
2024/01/17 01:29:19;;;;;;;8.32;5.45;;;;;;;-0.95;44.56;99763.53;4973107;28;20510;-74
2024/01/17 01:31:48;;;;;;;9.73;5.78;;;;;;;-0.95;44.59;99760.84;4994812;28;20097;-75
2024/01/17 01:34:16;;;;;;;7.55;4.82;;;;;;;-0.96;44.94;99764.47;4998017;28;20050;-74
2024/01/17 01:36:44;;;;;;;8.93;5.07;;;;;;;-0.95;44.57;99758.16;4990452;28;20046;-74
2024/01/17 01:39:14;;;;;;;8.30;5.45;;;;;;;-0.95;44.66;99749.22;5011831;28;20148;-75
2024/01/17 01:41:43;;;;;;;10.07;5.43;;;;;;;-0.94;44.53;99753.66;4987544;28;20514;-74
2024/01/17 01:44:11;;;;;;;11.45;5.68;;;;;;;-0.96;44.69;99742.97;5008541;28;20056;-74
2024/01/17 01:46:39;;;;;;;8.70;5.57;;;;;;;-0.94;44.75;99745.59;4999416;28;20045;-75
2024/01/17 01:49:08;;;;;;;8.95;5.47;;;;;;;-0.94;44.65;99741.09;5001603;28;20053;-75
2024/01/17 01:51:38;;;;;;;8.15;4.75;;;;;;;-0.93;44.76;99741.94;4996232;28;20046;-74
2024/01/17 01:54:06;;;;;;;9.55;5.32;;;;;;;-0.93;44.87;99733.91;4996328;28;20121;-74
2024/01/17 01:56:36;;;;;;;10.00;5.80;;;;;;;-0.92;44.72;99731.13;5009625;28;20034;-74
2024/01/17 01:59:05;;;;;;;8.88;5.38;;;;;;;-0.92;44.69;99733.81;4989992;28;20058;-74
2024/01/17 02:01:34;;;;;;;8.18;5.22;;;;;;;-0.90;44.66;99728.34;4992038;28;20385;-74
2024/01/17 02:04:03;;;;;;;10.82;5.72;;;;;;;-0.92;44.45;99722.19;5006934;28;20049;-75
2024/01/17 02:06:35;;;;;;;10.23;5.25;;;;;;;-0.91;44.42;99718.56;5002270;28;20066;-75
2024/01/17 02:09:03;;;;;;;7.63;4.68;;;;;;;-0.93;44.49;99713.28;4998205;28;20587;-75
2024/01/17 02:11:32;;;;;;;8.45;5.15;;;;;;;-0.93;44.54;99707.03;5011107;28;20570;-74
2024/01/17 02:14:00;;;;;;;9.70;5.55;;;;;;;-0.94;44.53;99710.69;4993214;28;20451;-74
2024/01/17 02:16:29;;;;;;;7.90;5.25;;;;;;;-0.95;44.55;99706.25;5005310;28;20035;-74
2024/01/17 02:18:58;;;;;;;9.57;5.95;;;;;;;-0.97;44.49;99703.69;4998612;28;20157;-75
2024/01/17 02:21:27;;;;;;;10.32;5.60;;;;;;;-0.97;44.68;99697.44;5007538;28;20038;-74
2024/01/17 02:24:14;;;;;;;9.30;5.47;;;;;;;-0.97;43.54;99703.69;4985745;28;20054;-75
2024/01/17 02:26:42;;;;;;;9.20;5.07;;;;;;;-0.99;44.35;99699.34;4990521;28;20042;-74
2024/01/17 02:29:10;;;;;;;10.65;5.82;;;;;;;-0.99;44.68;99691.28;5003550;28;20350;-75
2024/01/17 02:31:40;;;;;;;10.88;6.03;;;;;;;-1.00;44.73;99684.19;4992873;28;20147;-74
2024/01/17 02:34:08;;;;;;;8.85;5.65;;;;;;;-1.01;44.46;99687.81;5005301;28;20524;-75
2024/01/17 02:36:36;;;;;;;11.55;5.82;;;;;;;-1.03;44.50;99674.47;5005251;28;20046;-74
2024/01/17 02:39:05;;;;;;;9.40;5.80;;;;;;;-1.03;44.35;99669.09;4999613;28;20046;-74
2024/01/17 02:41:33;;;;;;;10.23;6.32;;;;;;;-1.07;44.46;99664.88;4984462;28;20054;-75
2024/01/17 02:44:01;;;;;;;9.45;5.78;;;;;;;-1.07;44.32;99662.22;5009497;28;20520;-74
2024/01/17 02:46:30;;;;;;;10.27;6.05;;;;;;;-1.06;44.35;99657.69;5009843;28;20045;-74
2024/01/17 02:48:58;;;;;;;9.77;5.78;;;;;;;-1.08;44.55;99651.56;4986754;28;20073;-74
2024/01/17 02:51:26;;;;;;;11.02;5.88;;;;;;;-1.09;44.28;99639.94;5010447;28;20046;-74
2024/01/17 02:53:54;;;;;;;7.30;5.25;;;;;;;-1.08;44.44;99635.44;5010089;28;20049;-74
2024/01/17 02:56:23;;;;;;;10.02;5.90;;;;;;;-1.09;44.45;99634.56;5011210;28;20046;-74
2024/01/17 02:58:51;;;;;;;9.15;5.60;;;;;;;-1.10;44.51;99630.16;5002759;28;20109;-74
2024/01/17 03:01:19;;;;;;;11.23;6.20;;;;;;;-1.11;44.60;99628.41;4986361;28;20057;-74
2024/01/17 03:03:47;;;;;;;9.05;5.85;;;;;;;-1.11;44.43;99624.88;5010730;28;20540;-74
2024/01/17 03:06:17;;;;;;;10.68;5.97;;;;;;;-1.11;44.21;99622.19;4991999;28;20054;-74
2024/01/17 03:08:45;;;;;;;9.00;5.95;;;;;;;-1.14;44.56;99617.88;4985080;28;20126;-74
2024/01/17 03:11:13;;;;;;;11.30;6.15;;;;;;;-1.13;44.55;99610.69;4984613;28;20049;-74
2024/01/17 03:13:43;;;;;;;9.38;6.43;;;;;;;-1.12;44.17;99618.63;4992438;28;20053;-74
2024/01/17 03:16:13;;;;;;;9.07;5.88;;;;;;;-1.14;44.67;99603.59;5007584;28;20129;-74
2024/01/17 03:18:41;;;;;;;10.52;6.50;;;;;;;-1.15;44.54;99607.22;5009205;28;20045;-74
2024/01/17 03:21:09;;;;;;;10.95;6.82;;;;;;;-1.17;44.21;99601.94;5001124;28;20046;-74
2024/01/17 03:23:37;;;;;;;11.43;6.00;;;;;;;-1.16;44.47;99592.94;4989593;28;20057;-74
2024/01/17 03:26:05;;;;;;;9.73;5.82;;;;;;;-1.15;44.36;99597.34;4990948;28;20100;-73
2024/01/17 03:28:33;;;;;;;10.82;6.65;;;;;;;-1.19;44.51;99593.09;4995528;28;20053;-74
2024/01/17 03:31:02;;;;;;;10.73;5.80;;;;;;;-1.19;44.18;99577.00;5000298;28;20044;-75
2024/01/17 03:33:30;;;;;;;10.73;5.75;;;;;;;-1.20;44.21;99568.09;5000599;28;20080;-74
2024/01/17 03:35:58;;;;;;;8.45;5.63;;;;;;;-1.21;44.51;99563.66;4980686;28;20065;-73
2024/01/17 03:38:26;;;;;;;10.20;5.85;;;;;;;-1.19;44.40;99555.53;4977169;28;20046;-74
2024/01/17 03:40:56;;;;;;;8.15;5.70;;;;;;;-1.21;44.64;99550.25;4998531;28;20065;-74
2024/01/17 03:43:24;;;;;;;11.13;6.50;;;;;;;-1.20;44.25;99543.06;4990309;28;20050;-74
2024/01/17 03:45:53;;;;;;;12.13;6.30;;;;;;;-1.22;44.08;99547.69;4998492;28;20042;-74
2024/01/17 03:48:23;;;;;;;10.55;6.43;;;;;;;-1.22;44.16;99534.25;4978559;28;20580;-74
2024/01/17 03:50:51;;;;;;;10.00;6.10;;;;;;;-1.26;44.37;99533.56;5006168;28;20042;-74
2024/01/17 03:53:19;;;;;;;12.27;6.90;;;;;;;-1.26;44.29;99520.16;5006496;28;20050;-74
2024/01/17 03:55:47;;;;;;;9.77;6.10;;;;;;;-1.26;44.28;99511.22;4993367;28;20584;-74
2024/01/17 03:58:15;;;;;;;11.85;6.65;;;;;;;-1.28;44.47;99497.03;4997403;28;20046;-73
2024/01/17 04:00:43;;;;;;;9.25;5.72;;;;;;;-1.27;44.26;99488.88;4991740;28;20076;-74
2024/01/17 04:03:12;;;;;;;9.15;5.60;;;;;;;-1.27;44.30;99490.69;4976065;28;20099;-74
2024/01/17 04:05:43;;;;;;;10.63;5.93;;;;;;;-1.26;44.38;99479.00;5009237;28;20105;-74
2024/01/17 04:08:11;;;;;;;9.27;5.95;;;;;;;-1.27;44.44;99478.16;5001652;28;20041;-74
2024/01/17 04:10:39;;;;;;;11.00;5.95;;;;;;;-1.26;44.55;99468.28;5006943;28;20042;-74
2024/01/17 04:13:07;;;;;;;9.95;5.63;;;;;;;-1.28;44.50;99463.00;4988631;28;20042;-74
2024/01/17 04:15:35;;;;;;;9.85;5.88;;;;;;;-1.27;44.37;99459.38;4996360;28;20548;-74
2024/01/17 04:18:03;;;;;;;11.70;6.15;;;;;;;-1.27;44.41;99458.50;4999878;28;20045;-74
2024/01/17 04:20:32;;;;;;;12.27;6.70;;;;;;;-1.28;44.29;99446.03;4998836;28;20042;-74
2024/01/17 04:23:04;;;;;;;11.15;6.70;;;;;;;-1.28;44.02;99443.34;4981310;28;20111;-74
2024/01/17 04:25:34;;;;;;;9.77;5.85;;;;;;;-1.30;44.52;99440.78;4997768;28;20042;-74
2024/01/17 04:28:05;;;;;;;13.02;5.93;;;;;;;-1.28;44.04;99430.78;4982054;28;20133;-73
2024/01/17 04:30:33;;;;;;;8.40;5.82;;;;;;;-1.31;44.33;99425.63;5002699;28;20045;-73
2024/01/17 04:33:01;;;;;;;10.98;6.32;;;;;;;-1.29;44.35;99412.97;4995665;28;20402;-74
2024/01/17 04:35:30;;;;;;;10.10;6.90;;;;;;;-1.31;44.28;99396.13;5004185;28;20137;-73
2024/01/17 04:37:58;;;;;;;11.07;5.90;;;;;;;-1.30;44.43;99387.09;5001533;28;20401;-74
2024/01/17 04:40:27;;;;;;;11.68;6.47;;;;;;;-1.30;44.22;99384.41;5009921;28;20099;-74
2024/01/17 04:42:55;;;;;;;12.55;6.72;;;;;;;-1.30;44.51;99376.38;5009859;28;20096;-74
2024/01/17 04:45:23;;;;;;;10.85;6.57;;;;;;;-1.32;44.32;99367.53;4983839;28;20053;-74
2024/01/17 04:47:51;;;;;;;9.32;6.20;;;;;;;-1.32;44.10;99362.19;4998059;28;20041;-73
2024/01/17 04:50:19;;;;;;;11.65;6.72;;;;;;;-1.32;44.34;99355.94;5010097;28;20505;-73
2024/01/17 04:52:47;;;;;;;12.02;6.15;;;;;;;-1.32;44.49;99343.38;5003716;28;20057;-73
2024/01/17 04:55:16;;;;;;;11.98;6.55;;;;;;;-1.31;44.24;99337.06;4996901;28;20130;-73
2024/01/17 04:57:45;;;;;;;11.27;6.70;;;;;;;-1.29;44.43;99334.25;5002126;28;20053;-73
2024/01/17 05:00:15;;;;;;;11.35;6.00;;;;;;;-1.29;44.60;99331.56;5000559;28;20056;-73
2024/01/17 05:02:43;;;;;;;12.32;6.65;;;;;;;-1.29;44.60;99328.88;5009476;28;20104;-73
2024/01/17 05:05:11;;;;;;;10.82;6.38;;;;;;;-1.28;44.57;99331.47;5009809;28;20044;-73
2024/01/17 05:07:39;;;;;;;11.50;6.70;;;;;;;-1.27;44.45;99325.16;4994782;28;20281;-73
2024/01/17 05:10:08;;;;;;;9.38;6.03;;;;;;;-1.26;44.45;99309.91;5011389;28;20060;-74
2024/01/17 05:12:36;;;;;;;11.10;6.15;;;;;;;-1.26;44.23;99310.78;4997254;28;20123;-74
2024/01/17 05:15:06;;;;;;;14.40;7.50;;;;;;;-1.25;44.19;99293.72;5001736;28;20660;-74
2024/01/17 05:17:34;;;;;;;10.27;6.53;;;;;;;-1.25;44.35;99290.19;5007155;28;20049;-73
2024/01/17 05:20:03;;;;;;;11.98;7.10;;;;;;;-1.24;44.32;99291.91;5012452;28;20156;-73
2024/01/17 05:22:31;;;;;;;10.82;6.40;;;;;;;-1.24;44.21;99286.53;5011607;28;20057;-73
2024/01/17 05:24:59;;;;;;;11.23;6.80;;;;;;;-1.23;44.15;99285.59;5011509;28;20102;-74
2024/01/17 05:27:27;;;;;;;11.95;6.45;;;;;;;-1.24;44.27;99278.50;5006623;28;20413;-73
2024/01/17 05:29:55;;;;;;;10.23;6.35;;;;;;;-1.24;44.31;99276.66;4995110;28;20136;-73
2024/01/17 05:32:24;;;;;;;12.07;6.28;;;;;;;-1.22;44.46;99273.88;5004682;28;20057;-73
2024/01/17 05:34:53;;;;;;;10.07;6.07;;;;;;;-1.23;44.25;99270.34;5011632;28;20052;-74
2024/01/17 05:37:21;;;;;;;11.38;6.72;;;;;;;-1.22;44.33;99265.84;4992728;28;20047;-73
2024/01/17 05:39:49;;;;;;;10.10;6.22;;;;;;;-1.21;43.98;99264.84;4975223;28;20042;-74
2024/01/17 05:42:18;;;;;;;13.50;6.95;;;;;;;-1.22;44.22;99249.72;5013256;28;20517;-73
2024/01/17 05:44:46;;;;;;;10.43;6.72;;;;;;;-1.22;44.14;99244.38;5012602;28;20080;-74
2024/01/17 05:47:14;;;;;;;10.95;6.00;;;;;;;-1.21;44.25;99243.38;4993280;28;20113;-74
2024/01/17 05:49:43;;;;;;;11.88;6.93;;;;;;;-1.20;44.12;99245.09;4992707;28;20600;-73
2024/01/17 05:52:11;;;;;;;11.75;7.15;;;;;;;-1.22;44.27;99244.38;4992440;28;20038;-74
2024/01/17 05:54:39;;;;;;;11.57;6.53;;;;;;;-1.21;43.94;99243.38;4991991;28;20082;-74
2024/01/17 05:57:07;;;;;;;10.75;6.55;;;;;;;-1.21;44.46;99249.59;5011271;28;20060;-73
2024/01/17 05:59:35;;;;;;;11.25;6.72;;;;;;;-1.22;44.11;99237.19;5012777;28;20481;-73
2024/01/17 06:02:04;;;;;;;10.88;6.47;;;;;;;-1.20;44.16;99237.03;5003428;28;20045;-73
2024/01/17 06:04:33;;;;;;;12.57;6.18;;;;;;;-1.20;44.32;99239.72;5001959;28;20049;-73
2024/01/17 06:07:02;;;;;;;11.98;6.60;;;;;;;-1.19;44.15;99226.22;5001930;28;20408;-73
2024/01/17 06:09:30;;;;;;;10.40;6.68;;;;;;;-1.18;44.04;99224.41;4994561;28;20046;-73
2024/01/17 06:11:58;;;;;;;10.90;6.57;;;;;;;-1.18;43.89;99203.78;5011211;28;20585;-73
2024/01/17 06:14:26;;;;;;;9.75;5.90;;;;;;;-1.16;44.18;99206.38;4994314;28;20434;-74
2024/01/17 06:16:54;;;;;;;10.40;6.32;;;;;;;-1.16;44.26;99206.38;5009488;28;20514;-73
2024/01/17 06:19:22;;;;;;;12.75;6.43;;;;;;;-1.15;44.01;99209.91;4981329;28;20049;-74
2024/01/17 06:21:50;;;;;;;10.63;6.40;;;;;;;-1.15;44.08;99213.47;4986168;28;20050;-73
2024/01/17 06:24:19;;;;;;;11.35;7.05;;;;;;;-1.12;44.05;99217.75;4986423;28;20072;-74
2024/01/17 06:26:47;;;;;;;11.23;6.32;;;;;;;-1.12;44.05;99215.94;5011878;28;20048;-74
2024/01/17 06:29:15;;;;;;;11.07;6.28;;;;;;;-1.14;44.15;99212.50;5011866;28;20046;-74
2024/01/17 06:31:43;;;;;;;10.98;5.85;;;;;;;-1.11;44.06;99198.00;5003123;28;20101;-75
2024/01/17 06:34:11;;;;;;;11.13;6.32;;;;;;;-1.11;43.95;99193.50;5010693;28;20049;-73
2024/01/17 06:36:40;;;;;;;10.90;6.30;;;;;;;-1.09;44.10;99196.09;5011271;28;20046;-74
2024/01/17 06:39:09;;;;;;;10.77;6.15;;;;;;;-1.08;44.22;99187.06;5004195;28;20064;-73
2024/01/17 06:41:38;;;;;;;10.73;6.18;;;;;;;-1.07;43.93;99178.94;4999006;28;20046;-74
2024/01/17 06:44:06;;;;;;;10.32;6.35;;;;;;;-1.08;44.10;99179.03;5003746;28;20046;-74
2024/01/17 06:46:34;;;;;;;10.25;6.10;;;;;;;-1.07;43.80;99162.81;5007568;28;20189;-74
2024/01/17 06:49:02;;;;;;;12.35;6.68;;;;;;;-1.06;44.06;99164.53;4975285;28;20338;-74
2024/01/17 06:51:31;;;;;;;10.30;6.03;;;;;;;-1.05;43.98;99166.25;4999666;28;20054;-74
2024/01/17 06:53:58;;;;;;;11.98;6.30;;;;;;;-1.04;44.07;99159.91;4993630;28;20088;-74
2024/01/17 06:56:27;;;;;;;10.40;6.38;;;;;;;-1.04;44.21;99154.53;4977971;28;20136;-74
2024/01/17 06:58:56;;;;;;;11.23;6.85;;;;;;;-1.03;43.88;99150.03;5003367;28;20050;-74
2024/01/17 07:01:24;;;;;;;10.23;6.03;;;;;;;-1.02;43.82;99141.00;5004246;28;20042;-74
2024/01/17 07:03:52;;;;;;;10.48;7.07;;;;;;;-1.02;44.12;99132.97;4984141;28;20517;-74
2024/01/17 07:06:20;;;;;;;11.88;6.40;;;;;;;-1.01;43.70;99137.38;4973506;28;20050;-74
2024/01/17 07:08:48;;;;;;;11.48;6.15;;;;;;;-1.02;43.97;99127.59;4990717;28;20052;-74
2024/01/17 07:11:18;;;;;;;9.57;5.72;;;;;;;-1.01;43.98;99121.25;5001845;28;20572;-74
2024/01/17 07:13:45;;;;;;;11.38;6.32;;;;;;;-1.01;44.02;99122.13;5005933;28;20100;-74
2024/01/17 07:16:15;;;;;;;11.60;6.18;;;;;;;-1.01;43.83;99116.75;5010750;28;20041;-74
2024/01/17 07:18:43;;;;;;;10.25;6.13;;;;;;;-1.00;43.96;99114.94;4991705;28;20046;-74
2024/01/17 07:21:11;;;;;;;12.00;6.68;;;;;;;-1.00;44.01;99105.06;5000232;28;20084;-74
2024/01/17 07:23:39;;;;;;;11.82;6.85;;;;;;;-1.00;43.82;99091.63;5009028;28;20504;-74
2024/01/17 07:26:08;;;;;;;10.57;6.47;;;;;;;-1.00;44.02;99091.63;4999915;28;20348;-74
2024/01/17 07:28:36;;;;;;;14.10;7.25;;;;;;;-1.00;43.74;99086.25;5009969;28;20483;-74
2024/01/17 07:31:04;;;;;;;11.10;6.32;;;;;;;-0.99;43.74;99087.97;5006782;28;20504;-74
2024/01/17 07:33:34;;;;;;;12.57;6.63;;;;;;;-0.97;43.76;99085.19;4990385;28;20077;-74
2024/01/17 07:36:02;;;;;;;10.85;6.30;;;;;;;-0.98;43.92;99083.47;4990962;28;20050;-74
2024/01/17 07:38:30;;;;;;;11.20;6.88;;;;;;;-0.97;43.64;99071.78;4986775;28;20057;-74
2024/01/17 07:40:59;;;;;;;10.90;6.68;;;;;;;-0.98;43.80;99065.53;5006705;28;20045;-74
2024/01/17 07:43:27;;;;;;;10.75;6.13;;;;;;;-0.96;43.91;99065.41;4978666;28;20540;-73
2024/01/17 07:45:57;;;;;;;10.93;6.20;;;;;;;-0.94;44.02;99050.94;4988146;28;20393;-74
2024/01/17 07:48:24;;;;;;;10.52;5.90;;;;;;;-0.93;43.97;99047.28;5004180;28;20141;-72
2024/01/17 07:50:54;;;;;;;11.45;6.45;;;;;;;-0.91;43.83;99041.81;4998348;28;20061;-74
2024/01/17 07:53:22;;;;;;;9.07;5.75;;;;;;;-0.91;44.05;99031.06;4989491;28;20078;-74
2024/01/17 07:55:51;;;;;;;11.38;6.15;;;;;;;-0.89;43.98;99026.44;5006165;28;20100;-74
2024/01/17 07:58:19;;;;;;;9.88;5.97;;;;;;;-0.88;44.09;99014.72;5000647;28;20474;-74
2024/01/17 08:00:47;;;;;;;12.32;6.43;;;;;;;-0.87;44.12;99011.06;4993048;28;20141;-73
2024/01/17 08:03:15;;;;;;;10.55;6.20;;;;;;;-0.85;44.09;99012.69;4985230;28;20331;-74
2024/01/17 08:05:44;;;;;;;11.52;6.07;;;;;;;-0.84;43.88;99000.97;4989841;28;20517;-72
2024/01/17 08:08:13;;;;;;;11.05;6.43;;;;;;;-0.82;43.83;98999.06;4987419;28;20131;-73
2024/01/17 08:10:42;;;;;;;9.40;6.03;;;;;;;-0.82;43.73;99001.75;4997645;28;20070;-74
2024/01/17 08:13:10;;;;;;;9.68;5.90;;;;;;;-0.79;44.00;98989.91;5000704;28;20054;-73
2024/01/17 08:15:38;;;;;;;12.50;6.45;;;;;;;-0.78;44.11;98997.00;5001917;28;20529;-73
2024/01/17 08:18:08;;;;;;;10.43;6.22;;;;;;;-0.78;43.83;98986.25;4992479;28;20125;-73
2024/01/17 08:20:36;;;;;;;10.63;6.53;;;;;;;-0.80;43.91;98977.44;5003007;28;20041;-73
2024/01/17 08:23:05;;;;;;;10.38;5.75;;;;;;;-0.75;43.81;98977.13;4998558;28;20383;-73
2024/01/17 08:25:35;;;;;;;11.00;6.13;;;;;;;-0.75;43.87;98978.00;4998266;28;20520;-74
2024/01/17 08:28:03;;;;;;;10.52;6.20;;;;;;;-0.74;43.71;98976.16;4999593;28;20046;-74
2024/01/17 08:30:31;;;;;;;10.00;6.20;;;;;;;-0.72;43.69;98974.25;5002987;28;20041;-73
2024/01/17 08:32:59;;;;;;;11.15;6.43;;;;;;;-0.75;44.03;98956.50;4989259;28;21559;-73
2024/01/17 08:35:27;;;;;;;9.75;6.13;;;;;;;-0.72;43.91;98955.44;5004658;28;20034;-73
2024/01/17 08:37:55;;;;;;;10.88;6.22;;;;;;;-0.73;43.95;98943.84;4997369;28;20065;-73
2024/01/17 08:40:24;;;;;;;11.55;6.03;;;;;;;-0.72;43.78;98937.50;5007331;28;20508;-73
2024/01/17 08:42:53;;;;;;;12.13;6.05;;;;;;;-0.70;43.72;98937.34;5006432;28;20533;-74
2024/01/17 08:45:22;;;;;;;9.90;6.15;;;;;;;-0.71;43.84;98936.50;5011780;28;20575;-74
2024/01/17 08:47:50;;;;;;;10.93;6.43;;;;;;;-0.72;43.91;98936.63;5009801;28;20049;-73
2024/01/17 08:50:19;;;;;;;11.07;5.90;;;;;;;-0.71;43.65;98928.44;5008724;28;20133;-73
2024/01/17 08:52:48;;;;;;;11.60;6.25;;;;;;;-0.70;43.68;98927.47;5012032;28;20054;-74
2024/01/17 08:55:16;;;;;;;11.70;6.22;;;;;;;-0.70;43.81;98927.47;4975549;28;20514;-73
2024/01/17 08:57:44;;;;;;;8.98;5.60;;;;;;;-0.68;43.91;98932.75;4993570;28;20042;-74
2024/01/17 09:00:15;;;;;;;9.68;5.60;;;;;;;-0.66;43.22;98920.06;4993216;28;20050;-73
2024/01/17 09:02:43;;;;;;;8.65;5.68;;;;;;;-0.68;43.65;98909.44;4993649;28;20144;-75
2024/01/17 09:05:11;;;;;;;10.65;5.95;;;;;;;-0.66;43.55;98915.56;4977312;28;20046;-74
2024/01/17 09:07:42;;;;;;;9.20;5.60;;;;;;;-0.66;43.72;98909.31;4994619;28;20142;-74
2024/01/17 09:10:13;;;;;;;10.68;5.93;;;;;;;-0.64;43.62;98919.00;4995006;28;20046;-74
2024/01/17 09:12:41;;;;;;;10.23;5.40;;;;;;;-0.63;43.58;98906.38;4994523;28;20108;-74
2024/01/17 09:15:09;;;;;;;9.77;5.60;;;;;;;-0.60;43.73;98906.19;4983699;28;20074;-74
2024/01/17 09:17:39;;;;;;;9.90;5.32;;;;;;;-0.59;43.74;98903.38;4994580;28;20042;-74
2024/01/17 09:20:08;;;;;;;9.95;5.88;;;;;;;-0.56;43.67;98899.63;4976247;28;20050;-74
2024/01/17 09:22:36;;;;;;;11.23;6.30;;;;;;;-0.56;43.85;98888.88;4992784;28;20049;-74
2024/01/17 09:25:05;;;;;;;11.68;6.47;;;;;;;-0.53;43.70;98891.31;4994014;28;20050;-74
2024/01/17 09:27:33;;;;;;;8.85;5.90;;;;;;;-0.52;43.75;98876.94;4993750;28;20069;-74
2024/01/17 09:30:02;;;;;;;10.68;6.03;;;;;;;-0.52;43.84;98875.09;4993974;28;20039;-74
2024/01/17 09:32:30;;;;;;;11.40;6.13;;;;;;;-0.49;43.81;98871.34;4994133;28;20053;-74
2024/01/17 09:35:00;;;;;;;10.50;5.70;;;;;;;-0.45;43.73;98864.75;4994047;28;20050;-74
2024/01/17 09:37:28;;;;;;;10.00;5.50;;;;;;;-0.46;43.64;98865.72;4992387;28;20096;-74
2024/01/17 09:39:56;;;;;;;9.52;6.03;;;;;;;-0.45;43.64;98862.91;4993584;28;20066;-74
2024/01/17 09:42:24;;;;;;;9.82;5.70;;;;;;;-0.42;43.70;98856.47;4993850;28;20049;-75
2024/01/17 09:44:52;;;;;;;9.10;5.63;;;;;;;-0.39;43.89;98836.59;4993219;28;20054;-75
2024/01/17 09:47:21;;;;;;;10.05;5.95;;;;;;;-0.37;43.82;98840.00;4994198;28;20122;-74
2024/01/17 09:49:49;;;;;;;10.73;6.07;;;;;;;-0.35;43.64;98830.84;4993333;28;20052;-74
2024/01/17 09:52:22;;;;;;;10.18;5.88;;;;;;;-0.30;43.36;98830.50;4976075;28;20050;-75
2024/01/17 09:54:52;;;;;;;10.75;5.72;;;;;;;-0.31;43.77;98824.28;4993199;28;20043;-74
2024/01/17 09:57:24;;;;;;;10.30;6.13;;;;;;;-0.29;43.51;98830.38;4993419;28;20073;-74
2024/01/17 09:59:58;;;;;;;10.25;5.60;;;;;;;-0.26;43.18;98819.41;4993882;28;20093;-74
2024/01/17 10:02:27;;;;;;;12.00;6.18;;;;;;;-0.25;43.83;98817.56;4976481;28;20066;-75
2024/01/17 10:04:57;;;;;;;11.95;6.43;;;;;;;-0.25;43.79;98826.50;4992929;28;20125;-74
2024/01/17 10:07:26;;;;;;;9.95;6.57;;;;;;;-0.26;43.36;98824.78;4992199;28;20057;-74
2024/01/17 10:09:54;;;;;;;11.25;6.65;;;;;;;-0.24;43.41;98824.69;4993126;28;20600;-74
2024/01/17 10:12:22;;;;;;;13.25;7.10;;;;;;;-0.25;43.59;98823.81;4992803;28;20085;-74
2024/01/17 10:14:51;;;;;;;12.75;6.88;;;;;;;-0.25;43.50;98813.06;4975616;28;20145;-74
2024/01/17 10:17:19;;;;;;;12.18;6.65;;;;;;;-0.23;43.64;98804.88;4993197;28;20042;-74
2024/01/17 10:19:47;;;;;;;10.25;6.65;;;;;;;-0.24;43.44;98809.41;4992419;28;20129;-74
2024/01/17 10:22:19;;;;;;;10.50;6.75;;;;;;;-0.23;43.35;98807.56;4991898;28;20081;-74
2024/01/17 10:24:52;;;;;;;11.25;6.75;;;;;;;-0.21;42.87;98802.91;4992783;28;20054;-74
2024/01/17 10:27:20;;;;;;;;;;;;;;;-0.42;42.94;98797.34;4993163;28;20050;-75
2024/01/17 10:29:48;;;;;;;9.85;5.95;;;;;;;-0.26;43.91;98794.34;4975098;28;20222;-74
2024/01/17 10:32:17;;;;;;;11.68;6.20;;;;;;;-0.21;43.42;98793.03;4992787;28;20034;-74
2024/01/17 10:34:45;;;;;;;9.90;6.38;;;;;;;-0.19;43.56;98779.47;4975524;28;20097;-74
2024/01/17 10:37:14;;;;;;;11.30;6.53;;;;;;;-0.19;43.53;98772.25;4992589;28;20053;-74
2024/01/17 10:39:42;;;;;;;10.88;6.43;;;;;;;-0.18;43.76;98778.50;4974864;28;20043;-74
2024/01/17 10:42:20;;;;;;;11.40;6.53;;;;;;;-0.14;42.81;98771.91;4974990;28;20051;-74
2024/01/17 10:44:48;;;;;;;10.15;6.60;;;;;;;-0.16;43.61;98777.41;4991063;28;20498;-74
2024/01/17 10:47:16;;;;;;;10.35;6.35;;;;;;;-0.13;43.38;98777.16;4975940;28;20528;-74
2024/01/17 10:49:44;;;;;;;11.45;7.07;;;;;;;-0.11;43.67;98772.53;4992513;28;20505;-74
2024/01/17 10:52:17;;;;;;;10.15;6.63;;;;;;;-0.09;43.61;98769.72;4992269;28;20134;-75
2024/01/17 10:54:51;;;;;;;10.00;6.65;;;;;;;-0.07;42.90;98762.41;4974460;28;20058;-74
2024/01/17 10:57:21;;;;;;;9.75;5.95;;;;;;;-0.07;43.58;98763.28;4992701;28;20581;-75
2024/01/17 10:59:50;;;;;;;12.57;7.07;;;;;;;-0.06;43.58;98751.50;4992205;28;20046;-74
2024/01/17 11:02:20;;;;;;;11.73;6.70;;;;;;;-0.04;43.69;98752.25;4992433;28;20121;-75
2024/01/17 11:04:53;;;;;;;12.02;7.18;;;;;;;-0.03;43.66;98751.28;4992193;28;20070;-75
2024/01/17 11:07:24;;;;;;;12.20;6.70;;;;;;;-0.01;43.48;98751.19;4991318;28;20043;-75
2024/01/17 11:09:53;;;;;;;13.10;7.18;;;;;;;0.01;43.81;98748.38;4992179;28;20039;-74
2024/01/17 11:12:25;;;;;;;12.23;6.90;;;;;;;0.02;43.62;98748.25;4991866;28;20049;-75
2024/01/17 11:14:57;;;;;;;10.40;6.35;;;;;;;0.03;43.57;98741.03;4990866;28;20078;-74
2024/01/17 11:17:28;;;;;;;12.63;6.75;;;;;;;0.04;43.83;98740.03;4992451;28;20080;-74
2024/01/17 11:20:08;;;;;;;9.70;5.72;;;;;;;0.05;43.60;98737.25;4992111;28;20054;-73
2024/01/17 11:22:37;;;;;;;;;;;;;;;-0.14;43.44;98726.19;4992169;28;20066;-75
2024/01/17 11:25:16;;;;;;;11.13;6.40;;;;;;;0.02;43.29;98726.75;4994838;28;19922;-73
2024/01/17 11:27:54;;;;;;;10.07;6.32;;;;;;;0.09;42.98;98729.81;4993452;28;20104;-75
2024/01/17 11:30:36;;;;;;;11.43;6.93;;;;;;;0.08;42.86;98717.34;4993198;28;20050;-74
2024/01/17 11:33:08;;;;;;;12.18;6.88;;;;;;;0.08;43.53;98720.03;4990061;28;20054;-75
2024/01/17 11:35:44;;;;;;;13.53;7.00;;;;;;;0.09;42.98;98713.66;4974441;28;20050;-75